createdAt,value
2023-01-29T00:00:12.395Z,102844.63
2023-01-29T00:02:44.355Z,102848.94
2023-01-29T00:05:27.546Z,102846.78
2023-01-29T00:08:00.105Z,102852.91
2023-01-29T00:10:32.076Z,102851.97
2023-01-29T00:13:04.491Z,102841.59
2023-01-29T00:15:36.512Z,102841.59
2023-01-29T00:18:08.693Z,102824.97
2023-01-29T00:20:44.094Z,102835.19
2023-01-29T00:23:16.240Z,102838.22
2023-01-29T00:25:48.367Z,102834.88
2023-01-29T00:28:20.433Z,102817.50
2023-01-29T00:30:52.379Z,102819.31
2023-01-29T00:33:24.354Z,102812.91
2023-01-29T00:35:57.502Z,102826.78
2023-01-29T00:38:29.504Z,102821.31
2023-01-29T00:41:31.575Z,102781.66
2023-01-29T00:44:22.078Z,102818.41
2023-01-29T00:46:54.830Z,102815.66
2023-01-29T00:49:26.920Z,102811.84
2023-01-29T00:52:17.352Z,102790.94
2023-01-29T00:54:49.369Z,102783.63
2023-01-29T00:57:22.628Z,102797.47
2023-01-29T00:59:54.907Z,102784.38
2023-01-29T01:02:46.305Z,102791.84
2023-01-29T01:05:18.945Z,102772.63
2023-01-29T01:07:54.141Z,102775.38
2023-01-29T01:10:31.382Z,102787.56
2023-01-29T01:13:08.113Z,102779.19
2023-01-29T01:15:41.377Z,102794.28
2023-01-29T01:18:15.532Z,102799.50
2023-01-29T01:20:51.700Z,102779.19
2023-01-29T01:23:23.608Z,102792.63
2023-01-29T01:25:55.584Z,102795.34
2023-01-29T01:28:28.912Z,102772.03
2023-01-29T01:31:13.524Z,102783.91
2023-01-29T01:33:45.604Z,102787.91
2023-01-29T01:36:18.476Z,102781.16
2023-01-29T01:38:50.649Z,102797.78
2023-01-29T01:41:24.087Z,102791.53
2023-01-29T01:44:00.459Z,102799.31
2023-01-29T01:46:37.790Z,102806.38
2023-01-29T01:49:16.094Z,102804.06
2023-01-29T01:51:52.458Z,102793.72
2023-01-29T01:54:29.086Z,102793.28
2023-01-29T01:57:16.441Z,102787.47
2023-01-29T01:59:59.273Z,102798.88
2023-01-29T02:02:50.122Z,102798.13
2023-01-29T02:05:41.060Z,102794.16
2023-01-29T02:08:33.794Z,102797.34
2023-01-29T02:11:07.385Z,102806.22
2023-01-29T02:13:39.929Z,102801.50
2023-01-29T02:16:11.922Z,102788.38
2023-01-29T02:18:43.858Z,102802.69
2023-01-29T02:21:44.465Z,102806.50
2023-01-29T02:25:09.891Z,102812.13
2023-01-29T02:28:39.851Z,102830.72
2023-01-29T02:31:41.480Z,102817.00
2023-01-29T02:34:53.371Z,102804.06
2023-01-29T02:37:55.494Z,102815.63
2023-01-29T02:40:50.827Z,102799.78
2023-01-29T02:43:49.360Z,102812.59
2023-01-29T02:46:42.411Z,102785.78
2023-01-29T02:49:54.634Z,102806.50
2023-01-29T02:52:44.718Z,102801.31
2023-01-29T02:55:27.100Z,102798.28
2023-01-29T02:58:36.350Z,102803.16
2023-01-29T03:01:30.220Z,102805.41
2023-01-29T03:04:09.604Z,102796.44
2023-01-29T03:06:54.421Z,102800.56
2023-01-29T03:09:31.716Z,102805.44
2023-01-29T03:12:34.770Z,102793.41
2023-01-29T03:15:19.153Z,102795.84
2023-01-29T03:18:03.508Z,102795.84
2023-01-29T03:20:53.864Z,102781.50
2023-01-29T03:23:50.553Z,102794.78
2023-01-29T03:26:43.920Z,102800.91
2023-01-29T03:29:34.909Z,102797.38
2023-01-29T03:32:08.198Z,102786.53
2023-01-29T03:34:46.758Z,102792.66
2023-01-29T03:37:37.310Z,102781.94
2023-01-29T03:40:11.056Z,102778.13
2023-01-29T03:43:11.110Z,102791.88
2023-01-29T03:45:58.110Z,102794.31
2023-01-29T03:48:54.557Z,102787.91
2023-01-29T03:51:56.457Z,102793.72
2023-01-29T03:54:40.642Z,102783.19
2023-01-29T03:57:15.526Z,102774.97
2023-01-29T04:00:02.018Z,102766.56
2023-01-29T04:02:56.659Z,102775.09
2023-01-29T04:05:39.673Z,102757.72
2023-01-29T04:08:21.237Z,102772.97
2023-01-29T04:10:59.212Z,102772.66
2023-01-29T04:13:33.912Z,102764.44
2023-01-29T04:16:13.917Z,102766.69
2023-01-29T04:18:48.416Z,102758.78
2023-01-29T04:21:21.221Z,102762.13
2023-01-29T04:23:54.265Z,102759.72
2023-01-29T04:27:09.713Z,102748.41
2023-01-29T04:30:17.092Z,102759.41
2023-01-29T04:33:00.974Z,102751.50
2023-01-29T04:36:06.385Z,102748.28
2023-01-29T04:39:11.006Z,102747.97
2023-01-29T04:42:06.015Z,102729.66
2023-01-29T04:45:16.987Z,102746.13
2023-01-29T04:48:19.109Z,102737.63
2023-01-29T04:51:15.789Z,102725.56
2023-01-29T04:54:01.569Z,102726.91
2023-01-29T04:56:53.256Z,102727.69
2023-01-29T04:59:39.513Z,102716.84
2023-01-29T05:02:13.651Z,102713.81
2023-01-29T05:04:48.359Z,102709.53
2023-01-29T05:07:22.609Z,102708.31
2023-01-29T05:09:56.292Z,102706.66
2023-01-29T05:12:31.153Z,102703.44
2023-01-29T05:15:09.631Z,102680.28
2023-01-29T05:17:42.577Z,102702.50
2023-01-29T05:20:14.825Z,102710.47
2023-01-29T05:22:48.815Z,102704.06
2023-01-29T05:25:27.679Z,102704.50
2023-01-29T05:28:14.144Z,102689.72
2023-01-29T05:30:53.016Z,102679.50
2023-01-29T05:33:29.296Z,102683.44
2023-01-29T05:36:01.638Z,102680.09
2023-01-29T05:38:33.608Z,102683.00
2023-01-29T05:41:05.843Z,102674.75
2023-01-29T05:43:37.828Z,102693.50
2023-01-29T05:46:10.385Z,102687.25
2023-01-29T05:48:42.341Z,102692.44
2023-01-29T05:51:14.301Z,102694.59
2023-01-29T05:53:46.345Z,102686.06
2023-01-29T05:56:18.312Z,102699.94
2023-01-29T05:58:50.359Z,102688.19
2023-01-29T06:01:25.775Z,102690.75
2023-01-29T06:03:57.700Z,102707.06
2023-01-29T06:06:29.620Z,102700.94
2023-01-29T06:09:01.597Z,102704.31
2023-01-29T06:11:33.548Z,102707.06
2023-01-29T06:14:05.681Z,102708.72
2023-01-29T06:16:37.643Z,102710.41
2023-01-29T06:19:09.588Z,102691.19
2023-01-29T06:21:41.553Z,102691.38
2023-01-29T06:24:13.603Z,102722.00
2023-01-29T06:26:45.689Z,102727.47
2023-01-29T06:29:17.650Z,102728.09
2023-01-29T06:31:49.721Z,102728.97
2023-01-29T06:34:21.711Z,102708.34
2023-01-29T06:36:53.851Z,102700.28
2023-01-29T06:39:25.851Z,102688.69
2023-01-29T06:41:57.835Z,102683.09
2023-01-29T06:44:29.798Z,102683.09
2023-01-29T06:47:01.859Z,102687.97
2023-01-29T06:49:33.883Z,102692.25
2023-01-29T06:52:06.031Z,102696.50
2023-01-29T06:54:37.970Z,102685.69
2023-01-29T06:57:09.913Z,102684.47
2023-01-29T06:59:41.834Z,102672.53
2023-01-29T07:02:14.130Z,102672.84
2023-01-29T07:04:46.132Z,102676.22
2023-01-29T07:07:18.570Z,102660.66
2023-01-29T07:09:50.563Z,102680.16
2023-01-29T07:12:22.469Z,102675.44
2023-01-29T07:14:54.418Z,102666.59
2023-01-29T07:17:26.303Z,102665.50
2023-01-29T07:19:58.239Z,102675.88
2023-01-29T07:22:30.122Z,102682.63
2023-01-29T07:25:02.034Z,102683.25
2023-01-29T07:27:33.975Z,102672.41
2023-01-29T07:30:07.018Z,102686.88
2023-01-29T07:32:39.060Z,102687.81
2023-01-29T07:35:11.541Z,102685.22
2023-01-29T07:37:43.516Z,102685.06
2023-01-29T07:40:15.978Z,102672.25
2023-01-29T07:42:48.062Z,102665.50
2023-01-29T07:45:20.030Z,102670.09
2023-01-29T07:47:56.797Z,102658.81
2023-01-29T07:50:28.859Z,102644.53
2023-01-29T07:53:01.640Z,102659.16
2023-01-29T07:55:33.904Z,102662.50
2023-01-29T07:58:06.165Z,102675.28
2023-01-29T08:00:38.235Z,102674.66
2023-01-29T08:03:16.258Z,102677.72
2023-01-29T08:05:48.596Z,102670.81
2023-01-29T08:08:20.527Z,102664.88
2023-01-29T08:10:52.451Z,102668.56
2023-01-29T08:13:24.427Z,102665.97
2023-01-29T08:16:01.284Z,102656.03
2023-01-29T08:18:33.249Z,102596.06
2023-01-29T08:21:05.560Z,102664.59
2023-01-29T08:23:37.524Z,102670.34
2023-01-29T08:26:09.733Z,102663.78
2023-01-29T08:28:41.707Z,102660.25
2023-01-29T08:31:16.328Z,102661.81
2023-01-29T08:33:48.640Z,102662.84
2023-01-29T08:36:20.538Z,102636.50
2023-01-29T08:38:52.516Z,102652.00
2023-01-29T08:41:24.476Z,102649.00
2023-01-29T08:43:57.311Z,102652.19
2023-01-29T08:46:29.294Z,102646.88
2023-01-29T08:49:01.303Z,102624.00
2023-01-29T08:51:33.253Z,102636.06
2023-01-29T08:54:05.446Z,102631.63
2023-01-29T08:56:37.456Z,102627.34
2023-01-29T08:59:10.931Z,102630.38
2023-01-29T09:01:42.927Z,102634.03
2023-01-29T09:04:14.893Z,102634.94
2023-01-29T09:06:46.850Z,102636.16
2023-01-29T09:09:18.790Z,102619.44
2023-01-29T09:11:50.736Z,102643.47
2023-01-29T09:14:22.724Z,102639.50
2023-01-29T09:16:54.732Z,102620.47
2023-01-29T09:19:26.663Z,102628.56
2023-01-29T09:21:58.855Z,102626.13
2023-01-29T09:24:30.908Z,102618.19
2023-01-29T09:27:02.943Z,102618.19
2023-01-29T09:29:35.973Z,102618.19
2023-01-29T09:32:08.083Z,102619.25
2023-01-29T09:34:40.059Z,102607.81
2023-01-29T09:37:12.001Z,102616.94
2023-01-29T09:39:44.571Z,102604.44
2023-01-29T09:42:30.683Z,102602.31
2023-01-29T09:45:19.949Z,102614.16
2023-01-29T09:47:55.946Z,102602.25
2023-01-29T09:50:43.425Z,102611.06
2023-01-29T09:53:20.516Z,102615.94
2023-01-29T09:56:19.611Z,102619.59
2023-01-29T09:58:51.868Z,102613.28
2023-01-29T10:01:41.423Z,102602.13
2023-01-29T10:04:47.134Z,102614.34
2023-01-29T10:07:43.853Z,102615.28
2023-01-29T10:10:47.596Z,102615.84
2023-01-29T10:13:26.075Z,102615.88
2023-01-29T10:16:27.411Z,102629.75
2023-01-29T10:19:23.537Z,102626.50
2023-01-29T10:22:34.047Z,102622.91
2023-01-29T10:25:12.948Z,102619.97
2023-01-29T10:27:55.114Z,102615.69
2023-01-29T10:30:47.853Z,102613.09
2023-01-29T10:33:31.072Z,102607.78
2023-01-29T10:36:21.117Z,102603.28
2023-01-29T10:38:53.275Z,102607.84
2023-01-29T10:42:00.339Z,102602.66
2023-01-29T10:44:54.600Z,102606.59
2023-01-29T10:48:04.862Z,102595.00
2023-01-29T10:51:01.931Z,102593.75
2023-01-29T10:54:11.402Z,102592.47
2023-01-29T10:57:17.974Z,102594.59
2023-01-29T11:00:49.642Z,102591.50
2023-01-29T11:03:28.820Z,102591.03
2023-01-29T11:06:25.164Z,102573.81
2023-01-29T11:09:12.801Z,102571.94
2023-01-29T11:12:21.714Z,102572.84
2023-01-29T11:15:14.341Z,102558.19
2023-01-29T11:18:11.511Z,102553.91
2023-01-29T11:20:46.326Z,102554.75
2023-01-29T11:23:33.655Z,102536.56
2023-01-29T11:26:09.345Z,102537.75
2023-01-29T11:28:48.342Z,102535.41
2023-01-29T11:31:35.681Z,102520.88
2023-01-29T11:34:27.789Z,102512.09
2023-01-29T11:37:17.197Z,102518.25
2023-01-29T11:39:50.613Z,102505.69
2023-01-29T11:42:23.597Z,102506.63
2023-01-29T11:44:55.606Z,102500.50
2023-01-29T11:47:30.365Z,102500.50
2023-01-29T11:50:04.701Z,102490.75
2023-01-29T11:52:42.212Z,102484.00
2023-01-29T11:55:25.404Z,102473.50
2023-01-29T11:58:33.719Z,102470.63
2023-01-29T12:01:06.315Z,102452.97
2023-01-29T12:03:44.302Z,102444.38
2023-01-29T12:06:25.078Z,102433.22
2023-01-29T12:09:01.000Z,102435.59
2023-01-29T12:11:35.168Z,102428.56
2023-01-29T12:14:30.243Z,102415.56
2023-01-29T12:17:13.911Z,102408.56
2023-01-29T12:19:52.580Z,102418.34
2023-01-29T12:22:51.817Z,102412.97
2023-01-29T12:26:05.438Z,102404.06
2023-01-29T12:29:21.239Z,102397.41
2023-01-29T12:32:43.174Z,102401.06
2023-01-29T12:35:33.390Z,102385.22
2023-01-29T12:38:31.491Z,102382.47
2023-01-29T12:41:22.156Z,102391.59
2023-01-29T12:44:02.876Z,102383.66
2023-01-29T12:46:50.575Z,102379.09
2023-01-29T12:49:33.040Z,102376.34
2023-01-29T12:52:17.941Z,102372.97
2023-01-29T12:55:11.304Z,102371.41
2023-01-29T12:57:55.550Z,102350.34
2023-01-29T13:00:33.941Z,102347.41
2023-01-29T13:03:49.808Z,102361.81
2023-01-29T13:06:31.390Z,102359.47
2023-01-29T13:09:14.508Z,102357.78
2023-01-29T13:12:01.576Z,102350.63
2023-01-29T13:14:46.920Z,102336.84
2023-01-29T13:17:40.709Z,102340.22
2023-01-29T13:20:30.246Z,102322.00
2023-01-29T13:23:21.511Z,102336.75
2023-01-29T13:25:54.892Z,102342.06
2023-01-29T13:28:28.165Z,102333.75
2023-01-29T13:31:24.532Z,102329.97
2023-01-29T13:33:56.475Z,102321.41
2023-01-29T13:36:31.452Z,102318.91
2023-01-29T13:39:27.228Z,102317.88
2023-01-29T13:42:02.997Z,102303.06
2023-01-29T13:44:40.795Z,102293.31
2023-01-29T13:47:33.559Z,102298.13
2023-01-29T13:50:37.699Z,102296.56
2023-01-29T13:53:27.478Z,102293.31
2023-01-29T13:56:33.353Z,102299.69
2023-01-29T13:59:06.514Z,102291.38
2023-01-29T14:01:47.247Z,102296.31
2023-01-29T14:04:19.167Z,102299.94
2023-01-29T14:06:59.036Z,102295.00
2023-01-29T14:10:00.963Z,102301.78
2023-01-29T14:12:37.595Z,102300.44
2023-01-29T14:15:24.571Z,102290.97
2023-01-29T14:18:08.743Z,102280.56
2023-01-29T14:20:54.267Z,102266.91
2023-01-29T14:23:50.814Z,102267.69
2023-01-29T14:26:33.795Z,102273.53
2023-01-29T14:29:35.396Z,102270.16
2023-01-29T14:32:12.443Z,102279.91
2023-01-29T14:35:16.703Z,102272.09
2023-01-29T14:37:54.735Z,102267.53
2023-01-29T14:40:30.132Z,102268.06
2023-01-29T14:43:19.962Z,102261.72
2023-01-29T14:45:52.156Z,102254.19
2023-01-29T14:48:48.527Z,102265.22
2023-01-29T14:51:25.265Z,102258.84
2023-01-29T14:54:04.713Z,102250.25
2023-01-29T14:56:46.870Z,102237.00
2023-01-29T14:59:51.631Z,102245.06
2023-01-29T15:03:01.677Z,102248.84
2023-01-29T15:05:39.151Z,102244.81
2023-01-29T15:08:53.541Z,102239.59
2023-01-29T15:11:44.063Z,102241.44
2023-01-29T15:15:05.620Z,102242.06
2023-01-29T15:18:08.181Z,102242.97
2023-01-29T15:20:42.591Z,102212.56
2023-01-29T15:23:27.073Z,102227.75
2023-01-29T15:26:06.435Z,102228.69
2023-01-29T15:28:39.895Z,102226.22
2023-01-29T15:31:21.260Z,102223.22
2023-01-29T15:33:56.707Z,102221.00
2023-01-29T15:36:31.638Z,102213.75
2023-01-29T15:39:21.592Z,102223.22
2023-01-29T15:42:13.854Z,102209.16
2023-01-29T15:44:46.719Z,102208.66
2023-01-29T15:47:19.677Z,102205.13
2023-01-29T15:49:52.783Z,102210.56
2023-01-29T15:52:29.969Z,102203.69
2023-01-29T15:55:07.564Z,102196.41
2023-01-29T15:57:42.876Z,102182.38
2023-01-29T16:00:28.516Z,102186.25
2023-01-29T16:03:01.623Z,102176.13
2023-01-29T16:05:33.695Z,102171.56
2023-01-29T16:08:07.484Z,102175.22
2023-01-29T16:10:42.256Z,102171.81
2023-01-29T16:13:27.584Z,102173.56
2023-01-29T16:16:15.058Z,102171.06
2023-01-29T16:18:59.616Z,102163.41
2023-01-29T16:21:34.822Z,102153.00
2023-01-29T16:24:16.022Z,102165.19
2023-01-29T16:26:51.661Z,102163.41
2023-01-29T16:29:31.357Z,102124.69
2023-01-29T16:32:05.245Z,102155.47
2023-01-29T16:34:44.266Z,102141.44
2023-01-29T16:37:23.376Z,102137.78
2023-01-29T16:39:56.394Z,102129.09
2023-01-29T16:42:31.337Z,102139.44
2023-01-29T16:45:28.018Z,102138.56
2023-01-29T16:48:22.738Z,102148.34
2023-01-29T16:51:17.544Z,102130.47
2023-01-29T16:54:18.327Z,102131.69
2023-01-29T16:56:59.927Z,102135.19
2023-01-29T16:59:39.514Z,102131.69
2023-01-29T17:02:44.103Z,102126.19
2023-01-29T17:05:25.723Z,102127.00
2023-01-29T17:08:00.233Z,102132.84
2023-01-29T17:10:33.775Z,102138.94
2023-01-29T17:13:22.527Z,102131.81
2023-01-29T17:16:15.767Z,102124.53
2023-01-29T17:18:47.953Z,102123.88
2023-01-29T17:21:20.423Z,102124.41
2023-01-29T17:23:53.175Z,102119.59
2023-01-29T17:26:25.317Z,102123.81
2023-01-29T17:28:57.365Z,102102.84
2023-01-29T17:31:29.534Z,102113.63
2023-01-29T17:34:01.596Z,102119.72
2023-01-29T17:36:33.603Z,102120.66
2023-01-29T17:39:22.660Z,102118.16
2023-01-29T17:41:58.959Z,102107.88
2023-01-29T17:44:30.884Z,102069.59
2023-01-29T17:47:02.829Z,102110.59
2023-01-29T17:49:37.289Z,102107.22
2023-01-29T17:52:10.082Z,102089.31
2023-01-29T17:54:42.005Z,102097.34
2023-01-29T17:57:15.668Z,102093.44
2023-01-29T17:59:48.555Z,102109.31
2023-01-29T18:02:28.736Z,102105.94
2023-01-29T18:05:01.725Z,102115.44
2023-01-29T18:07:33.734Z,102107.50
2023-01-29T18:10:07.287Z,102097.34
2023-01-29T18:12:39.238Z,102096.81
2023-01-29T18:15:12.549Z,102087.97
2023-01-29T18:17:44.970Z,102073.28
2023-01-29T18:20:25.716Z,102089.28
2023-01-29T18:22:57.759Z,102094.34
2023-01-29T18:25:31.161Z,102098.63
2023-01-29T18:28:05.360Z,102094.22
2023-01-29T18:30:37.459Z,102093.44
2023-01-29T18:33:09.478Z,102056.28
2023-01-29T18:35:41.487Z,102072.63
2023-01-29T18:38:13.732Z,102064.88
2023-01-29T18:40:45.710Z,102080.72
2023-01-29T18:43:17.695Z,102075.81
2023-01-29T18:45:49.660Z,102066.19
2023-01-29T18:48:21.612Z,102062.03
2023-01-29T18:50:53.607Z,102028.41
2023-01-29T18:53:25.925Z,102033.44
2023-01-29T18:56:06.452Z,102024.84
2023-01-29T18:58:38.435Z,102019.22
2023-01-29T19:01:11.934Z,102001.34
2023-01-29T19:03:43.966Z,102016.72
2023-01-29T19:06:15.907Z,102017.66
2023-01-29T19:08:48.000Z,102018.72
2023-01-29T19:11:19.904Z,102025.06
2023-01-29T19:13:52.038Z,102029.13
2023-01-29T19:16:24.123Z,102018.63
2023-01-29T19:18:56.159Z,102018.09
2023-01-29T19:21:28.539Z,102006.53
2023-01-29T19:24:00.472Z,102005.84
2023-01-29T19:26:34.042Z,101995.31
2023-01-29T19:29:09.230Z,101982.59
2023-01-29T19:31:41.466Z,101970.75
2023-01-29T19:34:13.926Z,101970.97
2023-01-29T19:36:45.931Z,101957.28
2023-01-29T19:39:17.937Z,101956.38
2023-01-29T19:41:49.972Z,101968.75
2023-01-29T19:44:21.950Z,101965.22
2023-01-29T19:46:54.205Z,101952.88
2023-01-29T19:49:26.456Z,101943.38
2023-01-29T19:51:59.031Z,101930.50
2023-01-29T19:54:30.982Z,101927.91
2023-01-29T19:57:02.940Z,101914.91
2023-01-29T19:59:35.021Z,101923.13
2023-01-29T20:02:07.106Z,101921.81
2023-01-29T20:04:39.173Z,101908.03
2023-01-29T20:07:11.172Z,101893.50
2023-01-29T20:09:43.171Z,101902.03
2023-01-29T20:12:15.991Z,101885.16
2023-01-29T20:14:49.059Z,101901.00
2023-01-29T20:17:21.110Z,101908.03
2023-01-29T20:19:53.014Z,101929.88
2023-01-29T20:22:26.871Z,101908.94
2023-01-29T20:24:59.008Z,101919.84
2023-01-29T20:27:30.960Z,101921.63
2023-01-29T20:30:03.104Z,101923.53
2023-01-29T20:32:35.432Z,101919.84
2023-01-29T20:35:08.520Z,101918.94
2023-01-29T20:37:40.623Z,101920.63
2023-01-29T20:40:14.711Z,101915.50
2023-01-29T20:42:46.846Z,101929.56
2023-01-29T20:45:19.991Z,101930.34
2023-01-29T20:47:51.954Z,101897.63
2023-01-29T20:50:23.950Z,101919.38
2023-01-29T20:52:55.916Z,101907.28
2023-01-29T20:55:28.362Z,101902.19
2023-01-29T20:58:06.036Z,101892.47
2023-01-29T21:00:38.984Z,101899.50
2023-01-29T21:03:10.920Z,101902.88
2023-01-29T21:05:42.911Z,101904.56
2023-01-29T21:08:14.862Z,101906.38
2023-01-29T21:10:51.879Z,101891.09
2023-01-29T21:13:23.912Z,101899.72
2023-01-29T21:15:55.972Z,101894.63
2023-01-29T21:18:28.063Z,101900.72
2023-01-29T21:21:00.100Z,101908.19
2023-01-29T21:23:32.075Z,101913.88
2023-01-29T21:26:06.558Z,101909.81
2023-01-29T21:28:38.586Z,101912.19
2023-01-29T21:31:14.453Z,101916.81
2023-01-29T21:33:46.514Z,101903.47
2023-01-29T21:36:18.547Z,101894.19
2023-01-29T21:38:50.705Z,101905.84
2023-01-29T21:41:45.877Z,101892.28
2023-01-29T21:44:17.824Z,101883.88
2023-01-29T21:46:49.745Z,101878.47
2023-01-29T21:49:22.490Z,101895.00
2023-01-29T21:51:54.677Z,101889.00
2023-01-29T21:54:31.113Z,101877.56
2023-01-29T21:57:08.648Z,101892.97
2023-01-29T21:59:40.713Z,101885.47
2023-01-29T22:02:15.078Z,101898.94
2023-01-29T22:04:47.239Z,101910.25
2023-01-29T22:07:19.184Z,101911.28
2023-01-29T22:09:51.421Z,101894.19
2023-01-29T22:12:24.002Z,101865.13
2023-01-29T22:14:55.948Z,101846.81
2023-01-29T22:17:27.952Z,101848.84
2023-01-29T22:19:59.887Z,101838.22
2023-01-29T22:22:31.852Z,101822.59
2023-01-29T22:25:04.946Z,101833.91
2023-01-29T22:27:37.431Z,101824.44
2023-01-29T22:30:10.457Z,101781.88
2023-01-29T22:32:42.470Z,101771.69
2023-01-29T22:35:14.646Z,101745.88
2023-01-29T22:37:46.669Z,101724.28
2023-01-29T22:40:19.110Z,101770.31
2023-01-29T22:42:51.342Z,101770.09
2023-01-29T22:45:23.353Z,101789.44
2023-01-29T22:47:55.400Z,101800.66
2023-01-29T22:50:27.361Z,101797.47
2023-01-29T22:52:59.361Z,101793.16
2023-01-29T22:55:31.334Z,101788.19
2023-01-29T22:58:03.267Z,101779.72
2023-01-29T23:00:35.170Z,101774.28
2023-01-29T23:03:07.082Z,101793.59
2023-01-29T23:05:38.965Z,101787.31
2023-01-29T23:08:11.056Z,101772.78
2023-01-29T23:10:43.086Z,101770.09
2023-01-29T23:13:15.111Z,101735.13
2023-01-29T23:15:58.104Z,101744.16
2023-01-29T23:18:30.046Z,101725.00
2023-01-29T23:21:02.542Z,101705.09
2023-01-29T23:23:36.927Z,101717.53
2023-01-29T23:26:30.483Z,101738.59
2023-01-29T23:29:03.956Z,101747.19
2023-01-29T23:31:35.960Z,101755.13
2023-01-29T23:34:08.007Z,101749.00
2023-01-29T23:36:40.201Z,101744.00
2023-01-29T23:39:12.361Z,101727.25
2023-01-29T23:41:44.546Z,101728.81
2023-01-29T23:44:16.481Z,101709.47
2023-01-29T23:46:48.557Z,101682.53
2023-01-29T23:49:20.729Z,101719.63
2023-01-29T23:51:52.644Z,101711.81
2023-01-29T23:54:24.634Z,101699.00
2023-01-29T23:56:56.544Z,101692.31
2023-01-29T23:59:29.025Z,101689.91
